Time,TemperatureF,DewpointF,PressureIn,WindDirection,WindDirectionDegrees,WindSpeedMPH,WindSpeedGustMPH,Humidity,HourlyPrecipIn,Conditions,Clouds,dailyrainin,SolarRadiationWatts/m^2,SoftwareType,DateUTC
2013-06-14 00:02:00,84.0,48.0,29.68,WNW,282,1.0,9.0,29,0.00,,,0.00,0.000000,,2013-06-14 07:02:00,
2013-06-14 00:12:00,85.0,50.0,29.68,West,269,2.0,11.0,30,0.00,,,0.00,0.000000,,2013-06-14 07:12:00,
2013-06-14 00:22:00,85.0,51.0,29.68,NW,307,3.0,11.0,31,0.00,,,0.00,0.000000,,2013-06-14 07:22:00,
2013-06-14 00:43:00,84.0,51.0,29.67,NW,312,2.0,6.0,32,0.00,,,0.00,0.000000,,2013-06-14 07:43:00,
2013-06-14 00:53:00,84.0,51.0,29.67,WNW,289,1.0,0.0,32,0.00,,,0.00,0.000000,,2013-06-14 07:53:00,
2013-06-14 01:01:00,83.0,51.0,29.67,SE,144,0.0,6.0,33,0.00,,,0.00,0.000000,,2013-06-14 08:01:00,
2013-06-14 01:11:00,82.0,50.0,29.67,ENE,61,1.0,6.0,33,0.00,,,0.00,0.000000,,2013-06-14 08:11:00,
2013-06-14 01:22:00,81.0,51.0,29.67,NE,51,1.0,6.0,35,0.00,,,0.00,0.000000,,2013-06-14 08:22:00,
2013-06-14 01:32:00,81.0,51.0,29.67,NE,55,1.0,4.0,35,0.00,,,0.00,0.000000,,2013-06-14 08:32:00,
2013-06-14 01:42:00,81.0,51.0,29.67,ENE,65,0.0,4.0,35,0.00,,,0.00,0.000000,,2013-06-14 08:42:00,
2013-06-14 01:52:00,81.0,51.0,29.67,ENE,65,0.0,2.0,35,0.00,,,0.00,0.000000,,2013-06-14 08:52:00,
2013-06-14 02:01:00,79.0,50.0,29.67,ENE,65,0.0,1.0,37,0.00,,,0.00,0.000000,,2013-06-14 09:01:00,
2013-06-14 02:11:00,79.0,51.0,29.67,ENE,65,0.0,1.0,38,0.00,,,0.00,0.000000,,2013-06-14 09:11:00,
2013-06-14 02:22:00,79.0,51.0,29.67,ENE,65,0.0,1.0,38,0.00,,,0.00,0.000000,,2013-06-14 09:22:00,
2013-06-14 02:33:00,78.0,50.0,29.67,ENE,65,0.0,1.0,38,0.00,,,0.00,0.000000,,2013-06-14 09:33:00,
2013-06-14 02:43:00,77.0,51.0,29.67,ENE,65,0.0,1.0,40,0.00,,,0.00,0.000000,,2013-06-14 09:43:00,
2013-06-14 02:52:00,77.0,51.0,29.67,ENE,65,0.0,0.0,40,0.00,,,0.00,0.000000,,2013-06-14 09:52:00,
2013-06-14 03:01:00,77.0,51.0,29.68,ENE,65,0.0,1.0,40,0.00,,,0.00,0.000000,,2013-06-14 10:01:00,
2013-06-14 03:11:00,76.0,50.0,29.68,ENE,65,0.0,1.0,40,0.00,,,0.00,0.000000,,2013-06-14 10:11:00,
2013-06-14 03:21:00,76.0,51.0,29.68,ENE,65,0.0,0.0,41,0.00,,,0.00,0.000000,,2013-06-14 10:21:00,
2013-06-14 03:33:00,75.0,50.0,29.68,ENE,65,0.0,1.0,42,0.00,,,0.00,0.000000,,2013-06-14 10:33:00,
2013-06-14 03:43:00,75.0,50.0,29.69,ENE,69,0.0,1.0,41,0.00,,,0.00,0.000000,,2013-06-14 10:43:00,
2013-06-14 03:52:00,75.0,50.0,29.70,ENE,69,0.0,1.0,42,0.00,,,0.00,0.000000,,2013-06-14 10:52:00,
2013-06-14 04:01:00,75.0,50.0,29.69,ENE,69,0.0,2.0,42,0.00,,,0.00,0.000000,,2013-06-14 11:01:00,
2013-06-14 04:11:00,75.0,50.0,29.69,ENE,69,0.0,2.0,42,0.00,,,0.00,0.000000,,2013-06-14 11:11:00,
2013-06-14 04:22:00,74.0,51.0,29.69,ENE,66,0.0,4.0,44,0.00,,,0.00,0.000000,,2013-06-14 11:22:00,
2013-06-14 04:32:00,75.0,51.0,29.70,ENE,66,0.0,0.0,43,0.00,,,0.00,0.000000,,2013-06-14 11:32:00,
2013-06-14 04:43:00,75.0,51.0,29.70,ENE,66,0.0,0.0,43,0.00,,,0.00,0.000000,,2013-06-14 11:43:00,
2013-06-14 04:52:00,74.0,51.0,29.70,ENE,67,0.0,0.0,44,0.00,,,0.00,0.000000,,2013-06-14 11:52:00,
2013-06-14 05:01:00,76.0,52.0,29.70,ENE,66,0.0,2.0,44,0.00,,,0.00,0.000000,,2013-06-14 12:01:00,
2013-06-14 05:11:00,75.0,52.0,29.70,ENE,66,0.0,2.0,45,0.00,,,0.00,0.000000,,2013-06-14 12:11:00,
2013-06-14 05:22:00,75.0,53.0,29.70,ENE,66,0.0,0.0,47,0.00,,,0.00,0.000000,,2013-06-14 12:22:00,
2013-06-14 05:32:00,76.0,54.0,29.70,ENE,67,1.0,4.0,47,0.00,,,0.00,0.000000,,2013-06-14 12:32:00,
2013-06-14 05:43:00,77.0,55.0,29.71,ENE,62,1.0,4.0,46,0.00,,,0.00,12.000000,,2013-06-14 12:43:00,
2013-06-14 05:52:00,77.0,55.0,29.71,ENE,62,1.0,4.0,46,0.00,,,0.00,16.000000,,2013-06-14 12:52:00,
2013-06-14 06:01:00,77.0,55.0,29.71,ENE,62,0.0,0.0,46,0.00,,,0.00,30.000000,,2013-06-14 13:01:00,
2013-06-14 06:11:00,76.0,54.0,29.71,ENE,62,0.0,1.0,47,0.00,,,0.00,39.000000,,2013-06-14 13:11:00,
2013-06-14 06:22:00,78.0,56.0,29.70,ENE,62,0.0,0.0,46,0.00,,,0.00,102.000000,,2013-06-14 13:22:00,
2013-06-14 06:33:00,78.0,56.0,29.70,ENE,62,0.0,0.0,46,0.00,,,0.00,102.000000,,2013-06-14 13:33:00,
2013-06-14 06:43:00,79.0,56.0,29.71,ENE,62,0.0,0.0,46,0.00,,,0.00,127.000000,,2013-06-14 13:43:00,
2013-06-14 06:53:00,82.0,58.0,29.71,ENE,62,0.0,0.0,44,0.00,,,0.00,178.000000,,2013-06-14 13:53:00,
2013-06-14 07:02:00,83.0,58.0,29.72,ENE,62,0.0,1.0,42,0.00,,,0.00,202.000000,,2013-06-14 14:02:00,
2013-06-14 07:11:00,84.0,57.0,29.72,ENE,62,0.0,1.0,40,0.00,,,0.00,229.000000,,2013-06-14 14:11:00,
2013-06-14 07:22:00,85.0,57.0,29.72,ENE,62,0.0,0.0,38,0.00,,,0.00,269.000000,,2013-06-14 14:22:00,
2013-06-14 07:33:00,85.0,56.0,29.72,ENE,62,0.0,1.0,37,0.00,,,0.00,276.000000,,2013-06-14 14:33:00,
2013-06-14 07:43:00,86.0,57.0,29.72,SSE,159,0.0,2.0,37,0.00,,,0.00,325.000000,,2013-06-14 14:43:00,
2013-06-14 07:52:00,86.0,56.0,29.72,SSE,159,0.0,2.0,36,0.00,,,0.00,332.000000,,2013-06-14 14:52:00,
2013-06-14 08:01:00,86.0,56.0,29.72,SSE,159,0.0,0.0,36,0.00,,,0.00,374.000000,,2013-06-14 15:01:00,
2013-06-14 08:11:00,87.0,56.0,29.72,East,100,1.0,3.0,35,0.00,,,0.00,415.000000,,2013-06-14 15:11:00,
2013-06-14 08:22:00,87.0,56.0,29.72,East,98,1.0,5.0,35,0.00,,,0.00,445.000000,,2013-06-14 15:22:00,
2013-06-14 08:33:00,88.0,56.0,29.72,SSW,201,0.0,5.0,34,0.00,,,0.00,489.000000,,2013-06-14 15:33:00,
2013-06-14 08:43:00,88.0,56.0,29.72,SSW,201,1.0,5.0,34,0.00,,,0.00,501.000000,,2013-06-14 15:43:00,
2013-06-14 08:52:00,89.0,56.0,29.72,SSE,157,1.0,5.0,33,0.00,,,0.00,533.000000,,2013-06-14 15:52:00,
2013-06-14 09:01:00,88.0,55.0,29.72,SSE,161,1.0,5.0,33,0.00,,,0.00,552.000000,,2013-06-14 16:01:00,
2013-06-14 09:11:00,89.0,56.0,29.72,South,183,1.0,5.0,33,0.00,,,0.00,578.000000,,2013-06-14 16:11:00,
2013-06-14 09:22:00,91.0,56.0,29.71,West,261,1.0,5.0,31,0.00,,,0.00,626.000000,,2013-06-14 16:22:00,
2013-06-14 09:32:00,92.0,56.0,29.71,SSW,197,2.0,5.0,30,0.00,,,0.00,664.000000,,2013-06-14 16:32:00,
2013-06-14 09:43:00,93.0,56.0,29.71,SSW,195,0.0,5.0,29,0.00,,,0.00,689.000000,,2013-06-14 16:43:00,
2013-06-14 09:52:00,93.0,56.0,29.70,SW,229,1.0,5.0,29,0.00,,,0.00,703.000000,,2013-06-14 16:52:00,
2013-06-14 10:02:00,92.0,55.0,29.70,WSW,248,3.0,7.0,29,0.00,,,0.00,726.000000,,2013-06-14 17:02:00,
2013-06-14 10:11:00,93.0,55.0,29.70,WSW,250,2.0,7.0,28,0.00,,,0.00,759.000000,,2013-06-14 17:11:00,
2013-06-14 10:22:00,94.0,56.0,29.70,WNW,303,3.0,7.0,28,0.00,,,0.00,777.000000,,2013-06-14 17:22:00,
2013-06-14 10:34:00,94.0,55.0,29.70,NW,313,2.0,7.0,27,0.00,,,0.00,791.000000,,2013-06-14 17:34:00,
2013-06-14 10:43:00,94.0,55.0,29.70,SW,215,3.0,7.0,27,0.00,,,0.00,819.000000,,2013-06-14 17:43:00,
2013-06-14 10:53:00,95.0,56.0,29.70,SSW,193,4.0,7.0,27,0.00,,,0.00,826.000000,,2013-06-14 17:53:00,
2013-06-14 11:01:00,96.0,54.0,29.70,SSW,204,2.0,7.0,25,0.00,,,0.00,844.000000,,2013-06-14 18:01:00,
2013-06-14 11:11:00,95.0,55.0,29.69,NW,313,3.0,9.0,26,0.00,,,0.00,853.000000,,2013-06-14 18:11:00,
2013-06-14 11:21:00,96.0,54.0,29.69,SW,230,2.0,9.0,25,0.00,,,0.00,875.000000,,2013-06-14 18:21:00,
2013-06-14 11:32:00,97.0,54.0,29.68,South,174,3.0,8.0,24,0.00,,,0.00,893.000000,,2013-06-14 18:32:00,
2013-06-14 11:42:00,98.0,55.0,29.68,West,268,3.0,9.0,24,0.00,,,0.00,896.000000,,2013-06-14 18:42:00,
2013-06-14 11:52:00,97.0,54.0,29.68,SW,234,3.0,9.0,24,0.00,,,0.00,900.000000,,2013-06-14 18:52:00,
2013-06-14 12:01:00,99.0,55.0,29.67,SW,217,5.0,10.0,23,0.00,,,0.00,912.000000,,2013-06-14 19:01:00,
2013-06-14 12:11:00,99.0,55.0,29.67,SW,231,5.0,10.0,23,0.00,,,0.00,919.000000,,2013-06-14 19:11:00,
2013-06-14 12:21:00,99.0,53.0,29.66,West,278,4.0,10.0,22,0.00,,,0.00,921.000000,,2013-06-14 19:21:00,
2013-06-14 12:32:00,98.0,54.0,29.66,SW,217,4.0,11.0,23,0.00,,,0.00,925.000000,,2013-06-14 19:32:00,
2013-06-14 12:42:00,99.0,53.0,29.66,WSW,238,4.0,11.0,22,0.00,,,0.00,925.000000,,2013-06-14 19:42:00,
2013-06-14 12:53:00,99.0,53.0,29.65,SW,217,4.0,12.0,22,0.00,,,0.00,925.000000,,2013-06-14 19:53:00,
2013-06-14 13:01:00,100.0,54.0,29.65,SW,217,4.0,12.0,22,0.00,,,0.00,930.000000,,2013-06-14 20:01:00,
2013-06-14 13:11:00,101.0,55.0,29.64,WNW,296,5.0,12.0,22,0.00,,,0.00,918.000000,,2013-06-14 20:11:00,
2013-06-14 13:21:00,101.0,55.0,29.64,WNW,301,6.0,12.0,22,0.00,,,0.00,912.000000,,2013-06-14 20:21:00,
2013-06-14 13:33:00,100.0,54.0,29.64,SW,224,6.0,15.0,22,0.00,,,0.00,907.000000,,2013-06-14 20:33:00,
2013-06-14 13:43:00,100.0,54.0,29.64,SW,224,6.0,15.0,22,0.00,,,0.00,907.000000,,2013-06-14 20:43:00,
2013-06-14 13:53:00,100.0,54.0,29.64,SW,224,6.0,15.0,22,0.00,,,0.00,907.000000,,2013-06-14 20:53:00,
2013-06-14 14:01:00,101.0,52.0,29.62,WNW,294,7.0,14.0,20,0.00,,,0.00,882.000000,,2013-06-14 21:01:00,
2013-06-14 14:11:00,101.0,52.0,29.62,WNW,301,6.0,17.0,20,0.00,,,0.00,867.000000,,2013-06-14 21:11:00,
2013-06-14 14:22:00,101.0,51.0,29.62,WNW,286,7.0,17.0,19,0.00,,,0.00,849.000000,,2013-06-14 21:22:00,
2013-06-14 14:33:00,101.0,52.0,29.61,WSW,253,8.0,13.0,20,0.00,,,0.00,842.000000,,2013-06-14 21:33:00,
2013-06-14 14:42:00,101.0,51.0,29.60,WNW,286,5.0,15.0,19,0.00,,,0.00,826.000000,,2013-06-14 21:42:00,
2013-06-14 14:52:00,102.0,50.0,29.60,WSW,239,6.0,16.0,18,0.00,,,0.00,796.000000,,2013-06-14 21:52:00,
2013-06-14 15:01:00,102.0,50.0,29.60,West,272,7.0,16.0,18,0.00,,,0.00,788.000000,,2013-06-14 22:01:00,
2013-06-14 15:11:00,103.0,50.0,29.59,WSW,239,7.0,13.0,17,0.00,,,0.00,759.000000,,2013-06-14 22:11:00,
2013-06-14 15:22:00,102.0,50.0,29.58,WNW,284,8.0,17.0,18,0.00,,,0.00,735.000000,,2013-06-14 22:22:00,
2013-06-14 15:33:00,102.0,50.0,29.58,SW,235,8.0,17.0,18,0.00,,,0.00,724.000000,,2013-06-14 22:33:00,
2013-06-14 15:43:00,103.0,51.0,29.58,WSW,237,6.0,12.0,18,0.00,,,0.00,686.000000,,2013-06-14 22:43:00,
2013-06-14 15:52:00,103.0,50.0,29.58,WSW,257,6.0,12.0,17,0.00,,,0.00,671.000000,,2013-06-14 22:52:00,
2013-06-14 16:01:00,101.0,50.0,29.57,SSW,211,8.0,16.0,18,0.00,,,0.00,629.000000,,2013-06-14 23:01:00,
2013-06-14 16:11:00,102.0,49.0,29.57,WNW,287,7.0,16.0,17,0.00,,,0.00,621.000000,,2013-06-14 23:11:00,
2013-06-14 16:22:00,102.0,50.0,29.57,West,281,6.0,16.0,18,0.00,,,0.00,617.000000,,2013-06-14 23:22:00,
2013-06-14 16:32:00,102.0,50.0,29.56,West,277,7.0,14.0,18,0.00,,,0.00,561.000000,,2013-06-14 23:32:00,
2013-06-14 16:42:00,102.0,49.0,29.56,West,280,8.0,15.0,17,0.00,,,0.00,519.000000,,2013-06-14 23:42:00,
2013-06-14 16:52:00,101.0,50.0,29.56,NW,315,8.0,15.0,18,0.00,,,0.00,501.000000,,2013-06-14 23:52:00,
2013-06-14 17:01:00,100.0,49.0,29.56,West,262,7.0,16.0,18,0.00,,,0.00,468.000000,,2013-06-15 00:01:00,
2013-06-14 17:11:00,101.0,50.0,29.56,WNW,289,5.0,16.0,18,0.00,,,0.00,429.000000,,2013-06-15 00:11:00,
2013-06-14 17:22:00,100.0,49.0,29.56,SW,228,6.0,14.0,18,0.00,,,0.00,387.000000,,2013-06-15 00:22:00,
2013-06-14 17:33:00,100.0,49.0,29.56,WNW,286,5.0,11.0,18,0.00,,,0.00,359.000000,,2013-06-15 00:33:00,
2013-06-14 17:43:00,100.0,49.0,29.55,West,267,6.0,14.0,18,0.00,,,0.00,336.000000,,2013-06-15 00:43:00,
2013-06-14 17:52:00,100.0,49.0,29.55,NW,307,7.0,14.0,18,0.00,,,0.00,316.000000,,2013-06-15 00:52:00,
2013-06-14 18:01:00,100.0,49.0,29.55,West,262,7.0,14.0,18,0.00,,,0.00,302.000000,,2013-06-15 01:01:00,
2013-06-14 18:11:00,100.0,47.0,29.54,West,278,5.0,12.0,17,0.00,,,0.00,272.000000,,2013-06-15 01:11:00,
2013-06-14 18:22:00,100.0,49.0,29.55,WNW,286,6.0,13.0,18,0.00,,,0.00,251.000000,,2013-06-15 01:22:00,
2013-06-14 18:32:00,100.0,47.0,29.55,WSW,253,7.0,13.0,17,0.00,,,0.00,241.000000,,2013-06-15 01:32:00,
2013-06-14 18:42:00,99.0,47.0,29.55,NW,321,6.0,14.0,17,0.00,,,0.00,207.000000,,2013-06-15 01:42:00,
2013-06-14 18:53:00,99.0,47.0,29.55,WNW,294,7.0,14.0,17,0.00,,,0.00,169.000000,,2013-06-15 01:53:00,
2013-06-14 19:02:00,99.0,47.0,29.56,West,262,4.0,9.0,17,0.00,,,0.00,97.000000,,2013-06-15 02:02:00,
2013-06-14 19:11:00,98.0,46.0,29.57,West,261,5.0,13.0,17,0.00,,,0.00,56.000000,,2013-06-15 02:11:00,
2013-06-14 19:22:00,97.0,46.0,29.57,West,276,5.0,13.0,18,0.00,,,0.00,44.000000,,2013-06-15 02:22:00,
2013-06-14 19:33:00,97.0,46.0,29.57,West,276,5.0,13.0,18,0.00,,,0.00,44.000000,,2013-06-15 02:33:00,
2013-06-14 19:42:00,96.0,46.0,29.57,WNW,283,2.0,6.0,18,0.00,,,0.00,11.000000,,2013-06-15 02:42:00,
2013-06-14 19:53:00,95.0,46.0,29.58,WNW,294,1.0,7.0,19,0.00,,,0.00,0.000000,,2013-06-15 02:53:00,
2013-06-14 20:01:00,94.0,45.0,29.58,WNW,296,1.0,7.0,19,0.00,,,0.00,0.000000,,2013-06-15 03:01:00,
2013-06-14 20:11:00,94.0,45.0,29.58,NNW,328,1.0,4.0,19,0.00,,,0.00,0.000000,,2013-06-15 03:11:00,
2013-06-14 20:23:00,94.0,45.0,29.58,WNW,303,2.0,5.0,19,0.00,,,0.00,0.000000,,2013-06-15 03:23:00,
2013-06-14 20:32:00,94.0,44.0,29.59,NW,315,2.0,4.0,18,0.00,,,0.00,0.000000,,2013-06-15 03:32:00,
2013-06-14 20:43:00,93.0,45.0,29.59,NW,317,1.0,5.0,19,0.00,,,0.00,0.000000,,2013-06-15 03:43:00,
2013-06-14 20:52:00,93.0,45.0,29.59,NW,317,1.0,5.0,19,0.00,,,0.00,0.000000,,2013-06-15 03:52:00,
2013-06-14 21:01:00,90.0,45.0,29.59,NW,317,0.0,0.0,21,0.00,,,0.00,0.000000,,2013-06-15 04:01:00,
2013-06-14 21:11:00,89.0,45.0,29.60,NW,317,0.0,0.0,22,0.00,,,0.00,0.000000,,2013-06-15 04:11:00,
2013-06-14 21:21:00,88.0,46.0,29.61,NW,317,0.0,0.0,23,0.00,,,0.00,0.000000,,2013-06-15 04:21:00,
2013-06-14 21:33:00,86.0,45.0,29.61,NW,317,0.0,0.0,24,0.00,,,0.00,0.000000,,2013-06-15 04:33:00,
2013-06-14 21:43:00,85.0,45.0,29.61,NW,317,0.0,0.0,25,0.00,,,0.00,0.000000,,2013-06-15 04:43:00,
2013-06-14 21:53:00,85.0,45.0,29.62,NW,317,0.0,0.0,25,0.00,,,0.00,0.000000,,2013-06-15 04:53:00,
2013-06-14 22:02:00,85.0,45.0,29.62,NW,317,0.0,0.0,25,0.00,,,0.00,0.000000,,2013-06-15 05:02:00,
2013-06-14 22:11:00,84.0,45.0,29.63,NW,317,0.0,0.0,26,0.00,,,0.00,0.000000,,2013-06-15 05:11:00,
2013-06-14 22:22:00,83.0,45.0,29.63,NW,317,0.0,0.0,26,0.00,,,0.00,0.000000,,2013-06-15 05:22:00,
2013-06-14 22:33:00,83.0,46.0,29.63,NW,317,0.0,0.0,27,0.00,,,0.00,0.000000,,2013-06-15 05:33:00,
2013-06-14 22:42:00,81.0,45.0,29.63,NW,317,0.0,1.0,28,0.00,,,0.00,0.000000,,2013-06-15 05:42:00,
2013-06-14 22:52:00,81.0,45.0,29.63,NW,317,0.0,1.0,28,0.00,,,0.00,0.000000,,2013-06-15 05:52:00,
2013-06-14 23:01:00,81.0,45.0,29.63,NW,317,0.0,0.0,28,0.00,,,0.00,0.000000,,2013-06-15 06:01:00,
2013-06-14 23:11:00,82.0,45.0,29.64,NE,37,0.0,0.0,27,0.00,,,0.00,0.000000,,2013-06-15 06:11:00,
2013-06-14 23:23:00,81.0,45.0,29.65,NE,37,0.0,0.0,28,0.00,,,0.00,0.000000,,2013-06-15 06:23:00,
2013-06-14 23:33:00,80.0,45.0,29.65,NE,37,0.0,0.0,29,0.00,,,0.00,0.000000,,2013-06-15 06:33:00,
2013-06-14 23:43:00,80.0,45.0,29.65,NE,37,0.0,0.0,29,0.00,,,0.00,0.000000,,2013-06-15 06:43:00,
2013-06-14 23:52:00,80.0,45.0,29.65,NE,37,0.0,0.0,29,0.00,,,0.00,0.000000,,2013-06-15 06:52:00,